createdAt,value
2022-10-17T00:01:37.868Z,21.10
2022-10-17T00:04:04.358Z,21.10
2022-10-17T00:06:30.790Z,21.07
2022-10-17T00:08:57.145Z,21.03
2022-10-17T00:11:24.197Z,21.09
2022-10-17T00:13:51.828Z,21.08
2022-10-17T00:16:28.634Z,21.09
2022-10-17T00:18:55.157Z,21.10
2022-10-17T00:21:21.838Z,21.11
2022-10-17T00:23:48.235Z,21.12
2022-10-17T00:26:15.052Z,21.11
2022-10-17T00:28:41.562Z,21.09
2022-10-17T00:31:08.256Z,21.10
2022-10-17T00:33:35.098Z,21.09
2022-10-17T00:36:04.661Z,21.09
2022-10-17T00:38:31.120Z,21.10
2022-10-17T00:40:57.525Z,21.08
2022-10-17T00:43:24.103Z,21.08
2022-10-17T00:45:50.498Z,21.09
2022-10-17T00:48:21.167Z,21.09
2022-10-17T00:50:49.952Z,21.10
2022-10-17T00:53:16.628Z,21.09
2022-10-17T00:55:46.311Z,21.08
2022-10-17T00:58:12.919Z,21.08
2022-10-17T01:00:39.970Z,21.06
2022-10-17T01:03:06.314Z,21.06
2022-10-17T01:05:33.047Z,21.07
2022-10-17T01:07:59.584Z,21.07
2022-10-17T01:10:46.168Z,21.09
2022-10-17T01:13:18.858Z,21.10
2022-10-17T01:15:57.274Z,21.11
2022-10-17T01:18:29.852Z,21.10
2022-10-17T01:21:10.820Z,21.09
2022-10-17T01:23:57.434Z,21.09
2022-10-17T01:26:23.820Z,21.07
2022-10-17T01:29:09.093Z,21.08
2022-10-17T01:31:41.445Z,21.07
2022-10-17T01:34:16.004Z,21.07
2022-10-17T01:36:45.218Z,21.09
2022-10-17T01:39:26.888Z,21.09
2022-10-17T01:41:55.696Z,21.10
2022-10-17T01:44:32.531Z,21.11
2022-10-17T01:47:03.227Z,21.12
2022-10-17T01:49:32.066Z,21.10
2022-10-17T01:52:01.729Z,21.10
2022-10-17T01:54:31.539Z,21.12
2022-10-17T01:56:59.757Z,21.12
2022-10-17T01:59:29.978Z,21.11
2022-10-17T02:01:58.503Z,21.11
2022-10-17T02:04:25.425Z,21.12
2022-10-17T02:06:51.823Z,21.10
2022-10-17T02:09:19.617Z,21.10
2022-10-17T02:12:04.971Z,21.10
2022-10-17T02:14:51.739Z,21.09
2022-10-17T02:17:24.121Z,21.09
2022-10-17T02:19:55.487Z,21.09
2022-10-17T02:22:35.294Z,21.05
2022-10-17T02:25:01.715Z,21.08
2022-10-17T02:27:47.734Z,21.09
2022-10-17T02:30:32.093Z,21.11
2022-10-17T02:32:58.438Z,21.10
2022-10-17T02:35:27.467Z,21.09
2022-10-17T02:37:54.276Z,21.10
2022-10-17T02:40:22.088Z,21.10
2022-10-17T02:42:49.591Z,21.10
2022-10-17T02:45:16.528Z,21.11
2022-10-17T02:47:57.339Z,21.12
2022-10-17T02:53:05.653Z,21.17
2022-10-17T02:55:33.827Z,21.18
2022-10-17T02:58:02.749Z,21.17
2022-10-17T03:00:30.026Z,21.16
2022-10-17T03:02:56.482Z,21.14
2022-10-17T03:05:24.072Z,21.13
2022-10-17T03:07:50.637Z,21.11
2022-10-17T03:10:17.158Z,21.09
2022-10-17T03:12:43.560Z,21.09
2022-10-17T03:15:10.265Z,21.15
2022-10-17T03:17:37.114Z,21.17
2022-10-17T03:20:04.487Z,21.12
2022-10-17T03:22:31.146Z,21.14
2022-10-17T03:24:58.490Z,21.12
2022-10-17T03:27:25.199Z,21.10
2022-10-17T03:29:51.531Z,21.15
2022-10-17T03:32:17.917Z,21.17
2022-10-17T03:34:44.377Z,21.17
2022-10-17T03:37:10.732Z,21.19
2022-10-17T03:39:37.130Z,21.22
2022-10-17T03:42:03.505Z,21.22
2022-10-17T03:44:29.988Z,21.22
2022-10-17T03:46:56.717Z,21.22
2022-10-17T03:49:23.113Z,21.22
2022-10-17T03:51:49.523Z,21.20
2022-10-17T03:54:15.848Z,21.17
2022-10-17T03:56:42.474Z,21.20
2022-10-17T03:59:12.451Z,21.20
2022-10-17T04:01:38.967Z,21.23
2022-10-17T04:04:05.676Z,21.23
2022-10-17T04:06:32.487Z,21.22
2022-10-17T04:08:59.145Z,21.21
2022-10-17T04:11:25.478Z,21.23
2022-10-17T04:13:55.721Z,21.24
2022-10-17T04:16:22.555Z,21.24
2022-10-17T04:18:52.580Z,21.26
2022-10-17T04:21:19.348Z,21.25
2022-10-17T04:23:45.779Z,21.24
2022-10-17T04:26:12.203Z,21.24
2022-10-17T04:31:07.255Z,21.24
2022-10-17T04:33:34.465Z,21.23
2022-10-17T04:36:22.922Z,21.23
2022-10-17T04:38:49.377Z,21.25
2022-10-17T04:41:17.590Z,21.25
2022-10-17T04:43:46.916Z,21.25
2022-10-17T04:46:16.596Z,21.24
2022-10-17T04:48:42.998Z,21.25
2022-10-17T04:51:11.761Z,21.25
2022-10-17T04:53:38.577Z,21.24
2022-10-17T04:56:09.001Z,21.24
2022-10-17T04:58:35.395Z,21.24
2022-10-17T05:01:09.102Z,21.22
2022-10-17T05:03:35.650Z,21.21
2022-10-17T05:06:12.304Z,21.24
2022-10-17T05:08:38.765Z,21.27
2022-10-17T05:11:05.878Z,21.28
2022-10-17T05:13:33.003Z,21.25
2022-10-17T05:16:00.203Z,21.26
2022-10-17T05:18:27.287Z,21.27
2022-10-17T05:20:53.721Z,21.28
2022-10-17T05:23:20.077Z,21.27
2022-10-17T05:25:46.501Z,21.27
2022-10-17T05:28:12.846Z,21.28
2022-10-17T05:30:39.235Z,21.25
2022-10-17T05:33:05.628Z,21.26
2022-10-17T05:35:32.100Z,21.27
2022-10-17T05:37:59.033Z,21.28
2022-10-17T05:40:25.499Z,21.25
2022-10-17T05:42:52.040Z,21.22
2022-10-17T05:45:18.664Z,21.23
2022-10-17T05:47:47.424Z,21.25
2022-10-17T05:50:13.825Z,21.26
2022-10-17T05:52:41.944Z,21.28
2022-10-17T05:55:10.397Z,21.30
2022-10-17T05:57:36.878Z,21.30
2022-10-17T06:00:03.980Z,21.30
2022-10-17T06:02:30.719Z,21.30
2022-10-17T06:04:57.499Z,21.32
2022-10-17T06:07:23.860Z,21.32
2022-10-17T06:09:50.440Z,21.32
2022-10-17T06:12:16.778Z,21.31
2022-10-17T06:14:43.207Z,21.32
2022-10-17T06:17:14.841Z,21.32
2022-10-17T06:19:42.440Z,21.32
2022-10-17T06:22:08.854Z,21.33
2022-10-17T06:24:35.354Z,21.32
2022-10-17T06:27:01.693Z,21.32
2022-10-17T06:29:28.044Z,21.32
2022-10-17T06:31:54.433Z,21.31
2022-10-17T06:34:20.877Z,21.31
2022-10-17T06:36:47.318Z,21.31
2022-10-17T06:39:13.759Z,21.29
2022-10-17T06:41:41.398Z,21.30
2022-10-17T06:44:13.972Z,21.30
2022-10-17T06:46:40.802Z,21.29
2022-10-17T06:49:07.293Z,21.31
2022-10-17T06:51:37.406Z,21.31
2022-10-17T06:54:04.373Z,21.27
2022-10-17T06:56:30.899Z,21.31
2022-10-17T06:58:57.402Z,21.30
2022-10-17T07:01:23.841Z,21.31
2022-10-17T07:03:50.284Z,21.32
2022-10-17T07:06:17.961Z,21.32
2022-10-17T07:08:45.151Z,21.33
2022-10-17T07:11:18.638Z,21.32
2022-10-17T07:13:45.363Z,21.33
2022-10-17T07:16:12.070Z,21.23
2022-10-17T07:18:38.746Z,21.18
2022-10-17T07:21:05.522Z,21.13
2022-10-17T07:23:31.992Z,21.15
2022-10-17T07:26:02.357Z,21.24
2022-10-17T07:28:29.110Z,21.28
2022-10-17T07:30:55.591Z,21.32
2022-10-17T07:33:21.966Z,21.34
2022-10-17T07:35:48.333Z,21.37
2022-10-17T07:38:14.697Z,21.38
2022-10-17T07:40:41.016Z,21.38
2022-10-17T07:43:07.469Z,21.39
2022-10-17T07:45:33.922Z,21.40
2022-10-17T07:48:00.318Z,21.41
2022-10-17T07:50:26.748Z,21.40
2022-10-17T07:52:53.269Z,21.41
2022-10-17T07:55:19.737Z,21.41
2022-10-17T07:57:46.184Z,21.41
2022-10-17T08:00:12.798Z,21.41
2022-10-17T08:02:39.611Z,21.42
2022-10-17T08:05:06.250Z,21.42
2022-10-17T08:07:32.734Z,21.42
2022-10-17T08:10:00.260Z,21.42
2022-10-17T08:12:26.943Z,21.43
2022-10-17T08:14:53.540Z,21.43
2022-10-17T08:17:19.972Z,21.44
2022-10-17T08:19:46.431Z,21.44
2022-10-17T08:22:12.826Z,21.45
2022-10-17T08:24:39.256Z,21.51
2022-10-17T08:27:11.418Z,21.53
2022-10-17T08:29:38.513Z,21.55
2022-10-17T08:32:07.668Z,21.55
2022-10-17T08:34:35.546Z,21.56
2022-10-17T08:37:02.111Z,21.58
2022-10-17T08:39:28.836Z,21.60
2022-10-17T08:42:04.181Z,21.62
2022-10-17T08:44:36.870Z,21.62
2022-10-17T08:47:04.566Z,21.63
2022-10-17T08:49:52.546Z,21.64
2022-10-17T08:52:32.398Z,21.66
2022-10-17T08:54:59.659Z,21.67
2022-10-17T08:57:26.283Z,21.69
2022-10-17T08:59:54.238Z,21.69
2022-10-17T09:02:39.734Z,21.63
2022-10-17T09:05:26.559Z,21.71
2022-10-17T09:08:22.752Z,21.73
2022-10-17T09:11:00.554Z,21.74
2022-10-17T09:13:30.136Z,21.75
2022-10-17T09:16:11.570Z,21.75
2022-10-17T09:18:43.129Z,21.78
2022-10-17T09:21:39.579Z,21.80
2022-10-17T09:24:15.785Z,21.80
2022-10-17T09:26:44.384Z,21.83
2022-10-17T09:29:15.441Z,21.84
2022-10-17T09:31:47.371Z,21.84
2022-10-17T09:34:14.514Z,21.85
2022-10-17T09:36:40.907Z,21.86
2022-10-17T09:39:16.761Z,21.88
2022-10-17T09:41:49.840Z,21.89
2022-10-17T09:44:21.843Z,21.90
2022-10-17T09:47:07.248Z,21.92
2022-10-17T09:49:38.336Z,21.92
2022-10-17T09:52:06.894Z,21.94
2022-10-17T09:54:41.437Z,21.94
2022-10-17T09:57:09.723Z,21.95
2022-10-17T09:59:37.810Z,21.97
2022-10-17T10:02:24.470Z,21.99
2022-10-17T10:05:04.082Z,21.99
2022-10-17T10:07:38.756Z,22.01
2022-10-17T10:10:22.828Z,22.02
2022-10-17T10:13:02.168Z,22.03
2022-10-17T10:15:33.951Z,22.04
2022-10-17T10:18:00.375Z,22.05
2022-10-17T10:20:26.823Z,22.05
2022-10-17T10:23:12.462Z,22.08
2022-10-17T10:25:48.797Z,22.08
2022-10-17T10:28:16.008Z,22.09
2022-10-17T10:30:46.848Z,22.12
2022-10-17T10:33:13.333Z,22.15
2022-10-17T10:35:39.806Z,22.13
2022-10-17T10:38:17.190Z,22.13
2022-10-17T10:40:48.099Z,22.15
2022-10-17T10:43:26.905Z,22.13
2022-10-17T10:45:53.499Z,22.14
2022-10-17T10:48:23.180Z,22.15
2022-10-17T10:50:49.643Z,22.16
2022-10-17T10:53:34.957Z,22.17
2022-10-17T10:56:04.833Z,22.18
2022-10-17T10:58:35.266Z,22.18
2022-10-17T11:01:14.487Z,22.20
2022-10-17T11:04:01.260Z,22.18
2022-10-17T11:06:29.200Z,22.20
2022-10-17T11:09:04.420Z,22.12
2022-10-17T11:11:40.553Z,22.07
2022-10-17T11:14:13.756Z,22.07
2022-10-17T11:16:44.876Z,22.08
2022-10-17T11:19:14.609Z,22.10
2022-10-17T11:24:15.556Z,22.09
2022-10-17T11:26:45.099Z,22.09
2022-10-17T11:29:12.533Z,22.08
2022-10-17T11:31:43.261Z,22.09
2022-10-17T11:34:20.627Z,22.10
2022-10-17T11:36:49.645Z,22.10
2022-10-17T11:39:22.742Z,22.08
2022-10-17T11:42:04.266Z,22.09
2022-10-17T11:44:37.952Z,22.08
2022-10-17T11:47:04.437Z,22.07
2022-10-17T11:49:38.194Z,22.06
2022-10-17T11:52:37.382Z,22.07
2022-10-17T11:55:13.437Z,22.06
2022-10-17T11:57:46.131Z,22.05
2022-10-17T12:00:25.122Z,22.05
2022-10-17T12:03:00.476Z,22.04
2022-10-17T12:05:26.900Z,22.04
2022-10-17T12:08:01.155Z,22.04
2022-10-17T12:10:39.382Z,22.04
2022-10-17T12:13:24.647Z,22.04
2022-10-17T12:15:51.046Z,22.03
2022-10-17T12:18:17.598Z,22.03
2022-10-17T12:20:55.646Z,22.02
2022-10-17T12:23:26.101Z,22.02
2022-10-17T12:25:52.568Z,22.02
2022-10-17T12:28:27.389Z,22.02
2022-10-17T12:31:05.904Z,22.01
2022-10-17T12:33:32.384Z,22.00
2022-10-17T12:36:17.196Z,22.01
2022-10-17T12:38:47.822Z,22.01
2022-10-17T12:41:17.009Z,22.01
2022-10-17T12:43:44.782Z,21.99
2022-10-17T12:46:11.909Z,22.00
2022-10-17T12:48:38.468Z,21.99
2022-10-17T12:53:57.474Z,21.99
2022-10-17T12:56:31.742Z,21.99
2022-10-17T12:58:59.213Z,21.97
2022-10-17T13:01:30.960Z,21.98
2022-10-17T13:03:58.485Z,21.98
2022-10-17T13:06:26.747Z,21.96
2022-10-17T13:09:13.411Z,21.96
2022-10-17T13:11:40.075Z,21.95
2022-10-17T13:14:11.868Z,21.95
2022-10-17T13:16:39.642Z,21.93
2022-10-17T13:19:16.494Z,21.93
2022-10-17T13:22:05.975Z,21.93
2022-10-17T13:24:38.125Z,21.92
2022-10-17T13:27:22.568Z,21.91
2022-10-17T13:29:49.074Z,21.91
2022-10-17T13:32:15.511Z,21.90
2022-10-17T13:34:41.921Z,21.91
2022-10-17T13:37:10.750Z,21.91
2022-10-17T13:40:03.028Z,21.89
2022-10-17T13:42:37.941Z,21.88
2022-10-17T13:45:11.841Z,21.89
2022-10-17T13:47:39.245Z,21.89
2022-10-17T13:50:12.763Z,21.87
2022-10-17T13:52:47.670Z,21.87
2022-10-17T13:55:17.982Z,21.85
2022-10-17T13:57:44.402Z,21.85
2022-10-17T14:00:21.656Z,21.86
2022-10-17T14:02:48.474Z,21.85
2022-10-17T14:05:19.742Z,21.84
2022-10-17T14:08:10.152Z,21.84
2022-10-17T14:10:35.379Z,21.86
2022-10-17T14:13:04.315Z,21.85
2022-10-17T14:15:31.841Z,21.85
2022-10-17T14:18:02.310Z,21.83
2022-10-17T14:23:38.007Z,21.86
2022-10-17T14:26:12.651Z,21.86
2022-10-17T14:28:40.110Z,21.87
2022-10-17T14:31:11.557Z,21.87
2022-10-17T14:33:41.464Z,21.86
2022-10-17T14:36:09.624Z,21.86
2022-10-17T14:38:36.351Z,21.87
2022-10-17T14:44:00.680Z,21.86
2022-10-17T14:46:27.689Z,21.86
2022-10-17T14:48:56.046Z,21.86
2022-10-17T14:51:22.851Z,21.85
2022-10-17T14:54:08.049Z,21.86
2022-10-17T14:56:41.658Z,21.84
2022-10-17T14:59:13.743Z,21.86
2022-10-17T15:01:44.697Z,21.86
2022-10-17T15:04:11.043Z,21.86
2022-10-17T15:06:37.471Z,21.84
2022-10-17T15:09:04.559Z,21.85
2022-10-17T15:11:31.012Z,21.84
2022-10-17T15:13:57.379Z,21.84
2022-10-17T15:16:30.724Z,21.86
2022-10-17T15:18:57.453Z,21.86
2022-10-17T15:21:33.933Z,21.85
2022-10-17T15:24:06.151Z,21.85
2022-10-17T15:26:33.613Z,21.85
2022-10-17T15:29:00.578Z,21.85
2022-10-17T15:31:28.863Z,21.85
2022-10-17T15:33:55.234Z,21.86
2022-10-17T15:36:23.170Z,21.86
2022-10-17T15:38:50.513Z,21.86
2022-10-17T15:41:16.995Z,21.85
2022-10-17T15:43:43.403Z,21.85
2022-10-17T15:46:12.241Z,21.85
2022-10-17T15:48:38.721Z,21.86
2022-10-17T15:51:05.154Z,21.85
2022-10-17T15:53:31.590Z,21.83
2022-10-17T15:55:58.673Z,21.85
2022-10-17T15:58:25.075Z,21.85
2022-10-17T16:00:51.681Z,21.83
2022-10-17T16:03:18.103Z,21.84
2022-10-17T16:05:44.461Z,21.85
2022-10-17T16:08:10.921Z,21.85
2022-10-17T16:10:39.339Z,21.85
2022-10-17T16:13:05.775Z,21.86
2022-10-17T16:15:32.095Z,21.84
2022-10-17T16:18:01.574Z,21.84
2022-10-17T16:20:31.796Z,21.82
2022-10-17T16:23:00.775Z,21.83
2022-10-17T16:25:28.169Z,21.84
2022-10-17T16:27:55.334Z,21.83
2022-10-17T16:32:49.370Z,21.83
2022-10-17T16:35:19.948Z,21.83
2022-10-17T16:37:47.488Z,21.82
2022-10-17T16:40:14.021Z,21.82
2022-10-17T16:42:40.454Z,21.83
2022-10-17T16:45:07.087Z,21.83
2022-10-17T16:47:33.466Z,21.81
2022-10-17T16:49:59.893Z,21.81
2022-10-17T16:52:26.265Z,21.81
2022-10-17T16:54:53.227Z,21.81
2022-10-17T16:57:19.721Z,21.81
2022-10-17T16:59:46.528Z,21.81
2022-10-17T17:02:15.191Z,21.82
2022-10-17T17:04:42.641Z,21.81
2022-10-17T17:07:09.063Z,21.79
2022-10-17T17:09:35.519Z,21.80
2022-10-17T17:12:01.977Z,21.80
2022-10-17T17:14:28.340Z,21.80
2022-10-17T17:16:54.769Z,21.79
2022-10-17T17:19:21.156Z,21.80
2022-10-17T17:21:50.717Z,21.80
2022-10-17T17:24:17.939Z,21.79
2022-10-17T17:26:44.382Z,21.80
2022-10-17T17:29:12.144Z,21.79
2022-10-17T17:31:39.354Z,21.80
2022-10-17T17:34:06.044Z,21.79
2022-10-17T17:36:34.148Z,21.77
2022-10-17T17:39:01.383Z,21.79
2022-10-17T17:41:28.235Z,21.79
2022-10-17T17:43:54.864Z,21.78
2022-10-17T17:46:21.951Z,21.77
2022-10-17T17:48:48.989Z,21.78
2022-10-17T17:51:16.511Z,21.78
2022-10-17T17:53:43.269Z,21.77
2022-10-17T17:56:14.095Z,21.77
2022-10-17T17:58:43.168Z,21.76
2022-10-17T18:01:12.344Z,21.77
2022-10-17T18:03:41.064Z,21.76
2022-10-17T18:06:08.054Z,21.74
2022-10-17T18:08:35.131Z,21.75
2022-10-17T18:11:02.393Z,21.76
2022-10-17T18:13:28.980Z,21.76
2022-10-17T18:15:57.856Z,21.77
2022-10-17T18:18:25.279Z,21.75
2022-10-17T18:20:52.236Z,21.75
2022-10-17T18:23:18.737Z,21.74
2022-10-17T18:25:55.095Z,21.75
2022-10-17T18:28:22.088Z,21.71
2022-10-17T18:30:48.980Z,21.74
2022-10-17T18:33:15.402Z,21.74
2022-10-17T18:35:41.762Z,21.73
2022-10-17T18:38:08.160Z,21.74
2022-10-17T18:40:34.569Z,21.74
2022-10-17T18:43:00.964Z,21.72
2022-10-17T18:45:27.389Z,21.74
2022-10-17T18:47:54.228Z,21.74
2022-10-17T18:50:20.912Z,21.74
2022-10-17T18:52:50.600Z,21.74
2022-10-17T18:55:19.724Z,21.74
2022-10-17T18:57:46.898Z,21.74
2022-10-17T19:00:13.457Z,21.74
2022-10-17T19:02:39.861Z,21.72
2022-10-17T19:05:06.385Z,21.73
2022-10-17T19:07:32.904Z,21.74
2022-10-17T19:09:59.395Z,21.72
2022-10-17T19:12:25.786Z,21.73
2022-10-17T19:14:53.113Z,21.72
2022-10-17T19:17:19.675Z,21.71
2022-10-17T19:19:50.070Z,21.71
2022-10-17T19:22:16.480Z,21.73
2022-10-17T19:24:42.959Z,21.74
2022-10-17T19:27:09.407Z,21.73
2022-10-17T19:29:35.954Z,21.73
2022-10-17T19:32:02.702Z,21.72
2022-10-17T19:34:29.269Z,21.73
2022-10-17T19:36:55.896Z,21.72
2022-10-17T19:39:23.511Z,21.72
2022-10-17T19:41:50.016Z,21.74
2022-10-17T19:44:16.844Z,21.72
2022-10-17T19:46:47.001Z,21.73
2022-10-17T19:49:13.957Z,21.74
2022-10-17T19:51:40.631Z,21.73
2022-10-17T19:54:07.098Z,21.72
2022-10-17T19:56:37.608Z,21.73
2022-10-17T19:59:06.036Z,21.73
2022-10-17T20:01:33.841Z,21.72
2022-10-17T20:04:00.273Z,21.72
2022-10-17T20:06:27.001Z,21.73
2022-10-17T20:08:53.782Z,21.72
2022-10-17T20:11:24.482Z,21.72
2022-10-17T20:13:50.994Z,21.73
2022-10-17T20:16:21.196Z,21.74
2022-10-17T20:18:48.591Z,21.72
2022-10-17T20:21:17.409Z,21.71
2022-10-17T20:23:43.972Z,21.73
2022-10-17T20:26:26.373Z,21.72
2022-10-17T20:29:00.412Z,21.71
2022-10-17T20:31:26.926Z,21.71
2022-10-17T20:33:56.652Z,21.70
2022-10-17T20:36:23.590Z,21.72
2022-10-17T20:38:54.356Z,21.72
2022-10-17T20:41:21.001Z,21.73
2022-10-17T20:43:49.792Z,21.71
2022-10-17T20:46:29.460Z,21.71
2022-10-17T20:49:01.902Z,21.72
2022-10-17T20:51:28.388Z,21.71
2022-10-17T20:53:54.838Z,21.71
2022-10-17T20:56:22.720Z,21.71
2022-10-17T20:59:00.117Z,21.70
2022-10-17T21:01:28.199Z,21.66
2022-10-17T21:03:54.721Z,21.66
2022-10-17T21:06:21.775Z,21.72
2022-10-17T21:08:48.929Z,21.76
2022-10-17T21:11:17.365Z,21.78
2022-10-17T21:13:44.196Z,21.81
2022-10-17T21:16:19.680Z,21.84
2022-10-17T21:18:46.123Z,21.84
2022-10-17T21:21:15.775Z,21.85
2022-10-17T21:23:43.305Z,21.83
2022-10-17T21:26:12.264Z,21.84
2022-10-17T21:28:39.476Z,21.85
2022-10-17T21:31:17.169Z,21.85
2022-10-17T21:33:45.033Z,21.85
2022-10-17T21:36:11.897Z,21.85
2022-10-17T21:38:38.768Z,21.86
2022-10-17T21:41:06.172Z,21.87
2022-10-17T21:43:33.140Z,21.87
2022-10-17T21:46:04.116Z,21.89
2022-10-17T21:48:35.995Z,21.87
2022-10-17T21:51:03.950Z,21.87
2022-10-17T21:53:30.598Z,21.90
2022-10-17T21:56:00.702Z,21.88
2022-10-17T21:58:27.662Z,21.89
2022-10-17T22:00:54.621Z,21.89
2022-10-17T22:03:27.703Z,21.89
2022-10-17T22:06:06.919Z,21.89
2022-10-17T22:08:40.827Z,21.88
2022-10-17T22:11:11.302Z,21.88
2022-10-17T22:13:37.869Z,21.88
2022-10-17T22:16:05.854Z,21.89
2022-10-17T22:18:32.790Z,21.89
2022-10-17T22:21:06.494Z,21.89
2022-10-17T22:23:34.209Z,21.89
2022-10-17T22:26:00.718Z,21.90
2022-10-17T22:28:27.246Z,21.89
2022-10-17T22:30:53.742Z,21.89
2022-10-17T22:35:47.856Z,21.89
2022-10-17T22:38:14.614Z,21.89
2022-10-17T22:40:43.349Z,21.89
2022-10-17T22:43:09.770Z,21.89
2022-10-17T22:45:36.242Z,21.88
2022-10-17T22:48:02.647Z,21.89
2022-10-17T22:50:29.010Z,21.88
2022-10-17T22:52:55.432Z,21.88
2022-10-17T22:55:21.786Z,21.89
2022-10-17T22:57:48.350Z,21.91
2022-10-17T23:00:14.837Z,21.92
2022-10-17T23:02:41.422Z,21.89
2022-10-17T23:05:07.970Z,21.89
2022-10-17T23:07:34.633Z,21.89
2022-10-17T23:10:00.989Z,21.89
2022-10-17T23:12:27.484Z,21.89
2022-10-17T23:14:53.899Z,21.88
2022-10-17T23:17:20.253Z,21.89
2022-10-17T23:19:46.627Z,21.89
2022-10-17T23:22:13.007Z,21.89
2022-10-17T23:24:39.344Z,21.90
2022-10-17T23:27:05.822Z,21.88
2022-10-17T23:29:33.144Z,21.88
2022-10-17T23:31:59.553Z,21.87
2022-10-17T23:34:25.976Z,21.87
2022-10-17T23:36:52.766Z,21.88
2022-10-17T23:39:19.168Z,21.87
2022-10-17T23:41:45.658Z,21.87
2022-10-17T23:44:12.409Z,21.87
2022-10-17T23:46:38.945Z,21.86
2022-10-17T23:49:05.512Z,21.87
2022-10-17T23:51:32.419Z,21.87
2022-10-17T23:53:58.784Z,21.87
2022-10-17T23:56:25.201Z,21.87
2022-10-17T23:58:51.586Z,21.88
